createdAt,value
2018-03-24T05:01:01.452Z,6.93
2018-03-24T05:03:28.226Z,5.43
2018-03-24T05:05:55.015Z,7.03
2018-03-24T05:08:21.826Z,5.83
2018-03-24T05:10:48.583Z,7.60
2018-03-24T05:13:15.354Z,7.27
2018-03-24T05:15:42.130Z,7.83
2018-03-24T05:18:08.907Z,6.80
2018-03-24T05:20:35.716Z,7.13
2018-03-24T05:23:02.512Z,7.17
2018-03-24T05:25:29.282Z,6.90
2018-03-24T05:27:56.097Z,7.37
2018-03-24T05:30:22.863Z,6.20
2018-03-24T05:32:49.680Z,7.70
2018-03-24T05:35:16.431Z,6.07
2018-03-24T05:37:43.240Z,7.60
2018-03-24T05:40:09.984Z,7.07
2018-03-24T05:42:36.748Z,7.80
2018-03-24T05:45:03.548Z,7.13
2018-03-24T05:47:30.334Z,7.43
2018-03-24T05:49:57.099Z,8.23
2018-03-24T05:52:23.912Z,6.37
2018-03-24T05:54:50.704Z,6.57
2018-03-24T05:57:17.499Z,6.63
2018-03-24T05:59:44.263Z,7.60
2018-03-24T06:02:11.034Z,7.17
2018-03-24T06:04:37.806Z,6.77
2018-03-24T06:07:04.574Z,8.30
2018-03-24T06:09:31.363Z,7.83
2018-03-24T06:11:58.156Z,7.50
2018-03-24T06:14:24.964Z,7.40
2018-03-24T06:16:51.729Z,6.87
2018-03-24T06:19:18.562Z,7.60
2018-03-24T06:21:45.414Z,7.80
2018-03-24T06:24:12.182Z,8.03
2018-03-24T06:26:38.953Z,7.20
2018-03-24T06:29:05.737Z,8.40
2018-03-24T06:31:47.386Z,7.30
2018-03-24T06:34:14.201Z,8.53
2018-03-24T06:36:52.735Z,8.40
2018-03-24T06:39:19.560Z,7.67
2018-03-24T06:41:46.363Z,8.30
2018-03-24T06:44:13.136Z,8.33
2018-03-24T06:46:39.915Z,7.80
2018-03-24T06:49:06.675Z,7.30
2018-03-24T06:51:33.471Z,7.07
2018-03-24T06:54:00.212Z,8.63
2018-03-24T06:56:27.080Z,9.07
2018-03-24T06:58:53.816Z,8.70
2018-03-24T07:01:20.601Z,7.93
2018-03-24T07:03:47.465Z,7.93
2018-03-24T07:06:14.280Z,9.90
2018-03-24T07:08:41.048Z,7.60
2018-03-24T07:11:07.836Z,8.40
2018-03-24T07:13:34.616Z,8.10
2018-03-24T07:16:01.423Z,7.50
2018-03-24T07:18:28.197Z,8.43
2018-03-24T07:20:55.020Z,9.17
2018-03-24T07:23:21.811Z,10.10
2018-03-24T07:25:48.655Z,7.67
2018-03-24T07:28:15.490Z,8.70
2018-03-24T07:30:42.336Z,8.57
2018-03-24T07:33:09.107Z,8.90
2018-03-24T07:35:36.004Z,9.33
2018-03-24T07:38:02.846Z,10.13
2018-03-24T07:40:29.658Z,8.50
2018-03-24T07:42:56.454Z,10.43
2018-03-24T07:45:23.235Z,10.57
2018-03-24T07:47:50.042Z,8.60
2018-03-24T07:50:16.815Z,9.37
2018-03-24T07:52:43.608Z,9.07
2018-03-24T07:55:10.362Z,8.80
2018-03-24T07:57:37.131Z,10.80
2018-03-24T08:00:03.922Z,8.10
2018-03-24T08:02:30.745Z,9.77
2018-03-24T08:04:57.532Z,8.10
2018-03-24T08:07:24.325Z,10.87
2018-03-24T08:09:51.107Z,9.50
2018-03-24T08:12:17.887Z,10.80
2018-03-24T08:14:44.650Z,10.70
2018-03-24T08:17:11.471Z,10.00
2018-03-24T08:19:38.258Z,10.27
2018-03-24T08:22:05.060Z,8.63
2018-03-24T08:24:31.925Z,10.63
2018-03-24T08:26:58.740Z,10.13
2018-03-24T08:29:25.555Z,11.13
2018-03-24T08:31:52.320Z,11.27
2018-03-24T08:34:19.085Z,11.73
2018-03-24T08:36:45.864Z,10.60
2018-03-24T08:39:12.647Z,9.90
2018-03-24T08:41:39.478Z,10.70
2018-03-24T08:44:06.265Z,10.23
2018-03-24T08:46:33.068Z,10.47
2018-03-24T08:48:59.862Z,11.50
2018-03-24T08:51:26.628Z,10.67
2018-03-24T08:53:53.477Z,11.57
2018-03-24T08:56:20.290Z,10.73
2018-03-24T08:58:47.052Z,11.23
2018-03-24T09:01:13.831Z,10.67
2018-03-24T09:03:40.628Z,11.43
2018-03-24T09:06:07.484Z,10.40
2018-03-24T09:08:34.290Z,10.30
2018-03-24T09:11:01.060Z,10.60
2018-03-24T09:13:27.866Z,11.77
2018-03-24T09:15:54.656Z,12.33
2018-03-24T09:18:21.483Z,10.90
2018-03-24T09:20:48.240Z,12.23
2018-03-24T09:23:15.001Z,12.43
2018-03-24T09:25:41.804Z,13.23
2018-03-24T09:28:08.583Z,12.33
2018-03-24T09:30:35.401Z,13.10
2018-03-24T09:33:02.162Z,12.43
2018-03-24T09:35:28.971Z,13.13
2018-03-24T09:37:55.743Z,12.10
2018-03-24T09:40:22.527Z,11.77
2018-03-24T09:42:49.398Z,11.00
2018-03-24T09:45:16.204Z,11.73
2018-03-24T09:47:43.002Z,13.37
2018-03-24T09:50:09.791Z,13.03
2018-03-24T09:52:36.560Z,12.90
2018-03-24T09:55:03.407Z,11.60
2018-03-24T09:57:30.191Z,12.50
2018-03-24T09:59:56.992Z,13.10
2018-03-24T10:02:23.871Z,13.70
2018-03-24T10:04:50.690Z,13.97
2018-03-24T10:07:17.524Z,13.40
2018-03-24T10:09:44.343Z,12.67
2018-03-24T10:12:11.103Z,14.57
2018-03-24T10:14:37.868Z,14.03
2018-03-24T10:17:04.674Z,12.30
2018-03-24T10:19:31.460Z,12.43
2018-03-24T10:22:16.969Z,14.67
2018-03-24T10:24:43.753Z,11.40
2018-03-24T10:27:10.583Z,14.23
2018-03-24T10:29:37.346Z,14.27
2018-03-24T10:32:04.183Z,14.87
2018-03-24T10:34:31.006Z,15.80
2018-03-24T10:36:57.767Z,15.27
2018-03-24T10:39:24.609Z,12.93
2018-03-24T10:41:51.859Z,15.33
2018-03-24T10:44:18.632Z,15.20
2018-03-24T10:46:45.463Z,16.87
2018-03-24T10:49:12.245Z,14.17
2018-03-24T10:51:39.035Z,16.17
2018-03-24T10:54:05.815Z,15.47
2018-03-24T10:56:32.587Z,21.20
2018-03-24T10:58:59.412Z,16.70
2018-03-24T11:01:26.195Z,16.07
2018-03-24T11:03:53.271Z,17.63
2018-03-24T11:06:20.043Z,16.30
2018-03-24T11:08:46.804Z,17.70
2018-03-24T11:11:13.652Z,16.93
2018-03-24T11:13:40.419Z,15.17
2018-03-24T11:16:07.257Z,18.27
2018-03-24T11:18:34.031Z,16.50
2018-03-24T11:21:00.843Z,18.67
2018-03-24T11:23:27.646Z,17.27
2018-03-24T11:25:54.438Z,20.70
2018-03-24T11:28:21.217Z,19.70
2018-03-24T11:30:48.127Z,19.43
2018-03-24T11:33:14.942Z,17.27
2018-03-24T11:35:41.748Z,21.83
2018-03-24T11:38:08.547Z,17.27
2018-03-24T11:40:35.348Z,19.97
2018-03-24T11:43:02.114Z,17.47
2018-03-24T11:45:28.917Z,20.83
2018-03-24T11:48:05.657Z,16.47
2018-03-24T11:50:32.442Z,18.70
2018-03-24T11:52:59.230Z,19.30
2018-03-24T11:55:26.046Z,19.70
2018-03-24T11:57:52.800Z,21.47
2018-03-24T12:00:19.620Z,20.63
2018-03-24T12:02:46.396Z,21.13
2018-03-24T12:05:13.167Z,18.60
2018-03-24T12:07:39.944Z,17.17
2018-03-24T12:10:07.088Z,19.40
2018-03-24T12:12:33.905Z,21.10
2018-03-24T12:15:00.687Z,21.03
2018-03-24T12:17:27.568Z,18.27
2018-03-24T12:19:54.351Z,19.27
2018-03-24T12:22:21.124Z,21.20
2018-03-24T12:24:47.946Z,21.70
2018-03-24T12:27:14.750Z,22.50
2018-03-24T12:29:41.563Z,18.20
2018-03-24T12:32:08.441Z,20.73
2018-03-24T12:34:35.480Z,20.80
2018-03-24T12:37:02.281Z,20.47
2018-03-24T12:39:29.036Z,19.43
2018-03-24T12:41:55.852Z,18.67
2018-03-24T12:44:22.624Z,18.27
2018-03-24T12:46:49.411Z,20.20
2018-03-24T12:49:16.270Z,19.20
2018-03-24T12:51:43.062Z,17.83
2018-03-24T12:54:09.824Z,17.67
2018-03-24T12:56:36.610Z,16.17
2018-03-24T12:59:03.403Z,18.23
2018-03-24T13:01:30.292Z,18.30
2018-03-24T13:03:57.118Z,17.60
2018-03-24T13:06:23.895Z,18.00
2018-03-24T13:08:50.706Z,15.47
2018-03-24T13:11:17.531Z,16.03
2018-03-24T13:13:44.359Z,18.60
2018-03-24T13:16:11.152Z,17.17
2018-03-24T13:18:37.936Z,17.30
2018-03-24T13:21:04.760Z,17.90
2018-03-24T13:23:31.582Z,17.10
2018-03-24T13:25:58.384Z,16.47
2018-03-24T13:28:25.159Z,16.97
2018-03-24T13:30:52.132Z,16.47
2018-03-24T13:33:19.229Z,17.73
2018-03-24T13:35:46.068Z,18.43
2018-03-24T13:38:12.919Z,15.80
2018-03-24T13:40:39.730Z,15.50
2018-03-24T13:43:06.543Z,17.97
2018-03-24T13:45:33.344Z,18.03
2018-03-24T13:48:00.237Z,17.50
2018-03-24T13:50:27.064Z,17.43
2018-03-24T13:52:53.847Z,16.70
2018-03-24T13:55:20.620Z,18.00
2018-03-24T13:57:47.408Z,16.73
2018-03-24T14:00:15.999Z,17.50
2018-03-24T14:02:42.821Z,16.60
2018-03-24T14:05:09.656Z,16.83
2018-03-24T14:07:36.400Z,17.80
2018-03-24T14:10:04.071Z,16.00
2018-03-24T14:12:30.848Z,18.13
2018-03-24T14:14:57.687Z,17.43
2018-03-24T14:17:24.466Z,17.63
2018-03-24T14:19:51.232Z,18.37
2018-03-24T14:22:18.044Z,18.73
2018-03-24T14:24:44.823Z,16.67
2018-03-24T14:27:11.637Z,17.47
2018-03-24T14:29:38.442Z,17.97
2018-03-24T14:32:05.230Z,18.00
2018-03-24T14:34:32.173Z,17.50
2018-03-24T14:36:59.030Z,16.77
2018-03-24T14:39:25.834Z,19.00
2018-03-24T14:41:52.616Z,18.63
2018-03-24T14:44:19.395Z,19.27
2018-03-24T14:46:46.349Z,15.77
2018-03-24T14:49:13.144Z,17.40
2018-03-24T14:51:39.973Z,17.30
2018-03-24T14:54:06.797Z,15.93
2018-03-24T14:56:33.547Z,16.20
2018-03-24T14:59:00.319Z,15.57
2018-03-24T15:01:27.155Z,15.77
2018-03-24T15:03:54.024Z,17.13
2018-03-24T15:06:20.771Z,17.10
2018-03-24T15:08:47.583Z,15.63
2018-03-24T15:11:14.364Z,16.97
2018-03-24T15:13:41.129Z,17.53
2018-03-24T15:16:07.943Z,17.10
2018-03-24T15:18:34.717Z,18.40
2018-03-24T15:21:01.526Z,16.93
2018-03-24T15:23:28.307Z,18.10
2018-03-24T15:25:55.139Z,19.10
2018-03-24T15:28:21.985Z,17.93
2018-03-24T15:30:54.487Z,15.67
2018-03-24T15:33:27.228Z,17.67
2018-03-24T15:36:00.057Z,17.03
2018-03-24T15:38:26.861Z,17.33
2018-03-24T15:40:53.703Z,19.10
2018-03-24T15:43:20.509Z,18.70
2018-03-24T15:45:47.319Z,20.17
2018-03-24T15:48:14.133Z,19.70
2018-03-24T15:50:40.918Z,18.07
2018-03-24T15:53:07.714Z,20.13
2018-03-24T15:55:34.494Z,17.30
2018-03-24T15:58:01.299Z,18.33
2018-03-24T16:00:28.140Z,14.73
2018-03-24T16:02:54.917Z,19.33
2018-03-24T16:05:21.723Z,19.10
2018-03-24T16:07:48.530Z,19.77
2018-03-24T16:10:15.332Z,18.20
2018-03-24T16:12:42.249Z,19.73
2018-03-24T16:15:09.027Z,18.67
2018-03-24T16:17:35.792Z,17.90
2018-03-24T16:20:02.577Z,19.67
2018-03-24T16:22:29.394Z,22.90
2018-03-24T16:24:56.159Z,20.90
2018-03-24T16:27:22.944Z,19.57
2018-03-24T16:29:49.829Z,18.50
2018-03-24T16:32:16.613Z,20.77
2018-03-24T16:34:43.428Z,19.60
2018-03-24T16:37:10.192Z,20.03
2018-03-24T16:39:36.968Z,20.47
2018-03-24T16:42:03.757Z,19.50
2018-03-24T16:44:30.538Z,19.50
2018-03-24T16:46:57.347Z,19.23
2018-03-24T16:49:24.129Z,18.93
2018-03-24T16:51:50.910Z,19.40
2018-03-24T16:54:17.712Z,20.37
2018-03-24T16:56:44.507Z,20.10
2018-03-24T16:59:11.382Z,18.60
2018-03-24T17:01:38.178Z,21.47
2018-03-24T17:04:04.980Z,20.97
2018-03-24T17:06:31.783Z,21.57
2018-03-24T17:08:58.559Z,19.00
2018-03-24T17:11:25.356Z,20.80
2018-03-24T17:13:52.149Z,21.30
2018-03-24T17:16:18.945Z,22.60
2018-03-24T17:18:45.731Z,22.00
2018-03-24T17:21:12.511Z,18.30
2018-03-24T17:23:39.328Z,21.50
2018-03-24T17:26:06.112Z,22.77
2018-03-24T17:28:32.856Z,20.70
2018-03-24T17:30:59.646Z,22.10
2018-03-24T17:33:26.493Z,22.83
2018-03-24T17:35:53.336Z,25.37
2018-03-24T17:38:20.121Z,24.17
2018-03-24T17:40:46.922Z,21.67
2018-03-24T17:43:13.700Z,21.83
2018-03-24T17:45:40.504Z,23.93
2018-03-24T17:48:07.328Z,21.47
2018-03-24T17:50:34.118Z,20.50
2018-03-24T17:53:00.876Z,24.90
2018-03-24T17:55:27.668Z,23.73
2018-03-24T17:57:54.452Z,23.03
2018-03-24T18:00:21.259Z,21.57
2018-03-24T18:02:48.021Z,21.53
2018-03-24T18:05:14.812Z,21.77
2018-03-24T18:07:41.632Z,24.07
2018-03-24T18:10:08.445Z,24.57
2018-03-24T18:12:35.321Z,20.90
2018-03-24T18:15:02.382Z,23.57
2018-03-24T18:17:29.199Z,23.60
2018-03-24T18:19:55.980Z,21.77
2018-03-24T18:22:22.777Z,19.70
2018-03-24T18:24:49.607Z,22.83
2018-03-24T18:27:16.483Z,21.67
2018-03-24T18:29:43.245Z,23.97
2018-03-24T18:32:10.031Z,23.67
2018-03-24T18:34:36.870Z,24.27
2018-03-24T18:37:03.719Z,24.80
2018-03-24T18:39:31.219Z,23.60
2018-03-24T18:41:57.976Z,23.40
2018-03-24T18:44:24.759Z,23.93
2018-03-24T18:46:51.565Z,26.10
2018-03-24T18:49:18.446Z,22.50
2018-03-24T18:51:45.219Z,24.47
2018-03-24T18:54:12.151Z,22.80
2018-03-24T18:56:38.950Z,21.10
2018-03-24T18:59:05.789Z,24.37
2018-03-24T19:01:32.628Z,23.30
2018-03-24T19:03:59.393Z,22.30
2018-03-24T19:06:26.223Z,25.00
2018-03-24T19:08:53.034Z,23.67
2018-03-24T19:11:19.827Z,23.37
2018-03-24T19:13:46.644Z,25.30
2018-03-24T19:16:13.434Z,23.53
2018-03-24T19:18:40.202Z,24.43
2018-03-24T19:21:07.013Z,21.93
2018-03-24T19:23:33.780Z,24.97
2018-03-24T19:26:00.574Z,23.40
2018-03-24T19:28:27.400Z,22.10
2018-03-24T19:30:54.163Z,24.80
2018-03-24T19:33:20.945Z,22.33
2018-03-24T19:35:47.706Z,22.93
2018-03-24T19:38:14.557Z,26.00
2018-03-24T19:40:41.328Z,24.00
2018-03-24T19:43:08.115Z,24.93
2018-03-24T19:45:34.915Z,23.30
2018-03-24T19:48:01.726Z,23.03
2018-03-24T19:50:28.556Z,26.10
2018-03-24T19:52:55.327Z,24.07
2018-03-24T19:55:22.167Z,26.20
2018-03-24T19:57:48.961Z,22.83
2018-03-24T20:00:15.776Z,23.97
2018-03-24T20:02:42.611Z,24.93
2018-03-24T20:05:09.428Z,22.90
2018-03-24T20:07:36.222Z,25.20
2018-03-24T20:10:03.060Z,23.07
2018-03-24T20:12:29.856Z,22.07
2018-03-24T20:14:56.675Z,23.37
2018-03-24T20:17:23.443Z,22.50
2018-03-24T20:19:50.281Z,21.60
2018-03-24T20:22:17.087Z,21.97
2018-03-24T20:24:43.891Z,22.33
2018-03-24T20:27:10.734Z,24.27
2018-03-24T20:29:37.647Z,24.93
2018-03-24T20:32:04.443Z,24.10
2018-03-24T20:34:31.218Z,25.20
2018-03-24T20:36:58.016Z,22.10
2018-03-24T20:39:24.868Z,23.90
2018-03-24T20:41:51.673Z,25.60
2018-03-24T20:44:18.429Z,22.20
2018-03-24T20:46:45.549Z,24.40
2018-03-24T20:49:12.363Z,23.43
2018-03-24T20:51:39.199Z,25.23
2018-03-24T20:54:06.030Z,24.00
2018-03-24T20:56:32.814Z,23.50
2018-03-24T20:58:59.621Z,22.10
2018-03-24T21:01:26.520Z,21.77
2018-03-24T21:03:53.368Z,22.27
2018-03-24T21:06:20.182Z,23.87
2018-03-24T21:08:46.984Z,24.50
2018-03-24T21:11:13.787Z,22.23
2018-03-24T21:13:40.609Z,22.40
2018-03-24T21:16:07.460Z,22.80
2018-03-24T21:18:34.396Z,23.20
2018-03-24T21:21:01.195Z,20.93
2018-03-24T21:23:27.975Z,20.43
2018-03-24T21:25:54.752Z,22.90
2018-03-24T21:28:21.577Z,22.87
2018-03-24T21:30:48.367Z,21.30
2018-03-24T21:33:15.176Z,18.13
2018-03-24T21:35:42.300Z,19.43
2018-03-24T21:38:09.138Z,19.80
2018-03-24T21:40:35.969Z,18.50
2018-03-24T21:43:02.759Z,19.93
2018-03-24T21:45:29.570Z,18.40
2018-03-24T21:47:56.377Z,17.63
2018-03-24T21:50:23.179Z,18.40
2018-03-24T21:52:50.052Z,19.90
2018-03-24T21:55:16.850Z,17.27
2018-03-24T21:57:43.663Z,18.50
2018-03-24T22:00:10.464Z,19.13
2018-03-24T22:02:37.283Z,18.60
2018-03-24T22:05:04.185Z,18.90
2018-03-24T22:07:30.963Z,18.77
2018-03-24T22:09:57.761Z,20.70
2018-03-24T22:12:24.575Z,20.00
2018-03-24T22:14:51.649Z,19.30
2018-03-24T22:17:18.539Z,21.27
2018-03-24T22:19:45.328Z,19.87
2018-03-24T22:22:12.167Z,21.53
2018-03-24T22:24:39.032Z,19.93
2018-03-24T22:27:05.840Z,20.97
2018-03-24T22:29:32.704Z,19.80
2018-03-24T22:31:59.491Z,19.87
2018-03-24T22:34:26.356Z,17.90
2018-03-24T22:36:53.175Z,21.33
2018-03-24T22:39:20.025Z,21.03
2018-03-24T22:41:46.862Z,21.17
2018-03-24T22:44:13.771Z,21.40
2018-03-24T22:46:40.559Z,25.13
2018-03-24T22:49:08.396Z,23.03
2018-03-24T22:51:36.982Z,23.43
2018-03-24T22:54:03.809Z,22.30
2018-03-24T22:56:30.579Z,21.80
2018-03-24T22:58:57.399Z,21.87
2018-03-24T23:01:24.373Z,22.17
2018-03-24T23:03:51.170Z,25.00
2018-03-24T23:06:17.950Z,18.07
2018-03-24T23:08:44.811Z,18.40
2018-03-24T23:11:11.635Z,18.87
2018-03-24T23:13:38.437Z,17.60
2018-03-24T23:16:05.241Z,18.60
2018-03-24T23:18:32.045Z,15.57
2018-03-24T23:20:58.844Z,14.50
2018-03-24T23:23:25.642Z,13.97
2018-03-24T23:25:52.426Z,12.77
2018-03-24T23:28:19.207Z,13.70
